HTSU

Sumbawanga Airport

Sumbawanga, Tanzania

HTSU 110800Z 35004KT 9999 SCT017 BKN080 18/16 Q1021

Observed Flight Rules
Dec-11 @ 08:00 UTC (an hour ago) Visual Flight Rules
Wind Visibility Clouds
350° at 4 knots 10,000+ meters
  • Scattered at 1,700' AGL
  • Broken at 8,000' AGL
Temperatures Readings
Current 18°C / 64°F
Dewpoint 16°C / 61°F
Humidity 88%
Altimeter 30.15" Hg
Pressure 1021 hPa
Elevation 1804
Observed Flight Rules
Dec-11 @ 08:00 UTC
(an hour ago)
VFR
Wind Visibility
350° at 4 knots 10,000+ meters
Clouds
  • Scattered at 1,700' AGL
  • Broken at 8,000' AGL
Temperature Dewpoint
18°C / 64°F 16°C / 61°F
Humidity Altimeter Pressure
88% 30.15" Hg 1021 hPa